createdAt,value
2023-05-10T01:57:02.160Z,4.30
2023-05-10T03:05:10.826Z,3.30
2023-05-10T10:26:03.286Z,2.70
2023-05-10T10:26:41.514Z,2.40
2023-05-10T10:27:41.563Z,2.80
2023-05-10T10:28:41.766Z,2.80
2023-05-10T10:29:41.497Z,3.00
2023-05-10T10:30:41.574Z,3.10
2023-05-10T10:31:54.265Z,3.30
2023-05-10T10:32:55.219Z,3.70
2023-05-10T10:34:05.417Z,11.10
2023-05-10T10:34:51.585Z,7.70
2023-05-10T10:35:41.394Z,6.90
2023-05-10T10:36:45.850Z,5.00
2023-05-10T10:38:02.336Z,3.90
2023-05-10T10:38:41.477Z,3.30
2023-05-10T10:39:43.050Z,3.10
2023-05-10T10:40:42.511Z,3.20
2023-05-10T10:41:48.588Z,3.10
2023-05-10T10:43:09.454Z,2.90
2023-05-10T10:43:51.090Z,3.30
2023-05-10T10:44:49.294Z,3.10
2023-05-10T10:45:42.214Z,3.00
2023-05-10T10:51:43.251Z,2.90
2023-05-10T10:52:31.382Z,2.90
2023-05-10T10:53:22.022Z,3.10
2023-05-10T10:54:22.912Z,3.40
2023-05-10T10:55:26.272Z,3.00
2023-05-10T10:56:21.888Z,2.80
2023-05-10T11:00:45.024Z,1.30
2023-05-10T11:01:44.772Z,1.50
2023-05-10T11:02:46.262Z,1.40
2023-05-10T11:03:44.699Z,1.10
2023-05-10T11:05:13.394Z,1.00
2023-05-10T11:05:49.188Z,1.00
2023-05-10T19:06:05.019Z,3.00
2023-05-10T19:07:01.814Z,3.20
2023-05-10T19:08:01.607Z,3.10
2023-05-10T19:09:01.535Z,3.10
2023-05-10T19:10:04.429Z,3.10
2023-05-10T19:11:01.602Z,3.30
2023-05-10T19:12:01.552Z,3.00
2023-05-10T19:13:01.468Z,3.20
2023-05-10T19:14:01.520Z,3.10
2023-05-10T19:15:01.507Z,2.90
2023-05-10T19:16:04.619Z,2.80
2023-05-10T19:17:01.514Z,3.30
2023-05-10T19:18:01.497Z,3.00
2023-05-10T19:19:01.836Z,3.00
2023-05-10T19:20:02.238Z,3.10
2023-05-10T19:21:02.229Z,3.50
2023-05-10T19:22:01.682Z,3.30
2023-05-10T19:23:09.735Z,3.50
2023-05-10T19:24:02.527Z,3.00
2023-05-10T19:25:01.682Z,3.40
2023-05-10T19:26:01.310Z,3.30
2023-05-10T19:27:01.958Z,3.60
2023-05-10T19:28:01.294Z,3.30
2023-05-10T19:29:03.525Z,3.20
2023-05-10T19:30:01.375Z,3.60
2023-05-10T19:31:01.268Z,3.50
2023-05-10T19:32:01.354Z,3.10
2023-05-10T19:33:01.309Z,3.10
2023-05-10T19:34:01.265Z,3.80
2023-05-10T19:35:01.348Z,3.30
2023-05-10T19:36:01.219Z,3.50
2023-05-10T19:37:01.251Z,3.20
2023-05-10T19:38:01.701Z,3.70
2023-05-10T19:39:01.195Z,3.30
2023-05-10T19:40:01.169Z,3.50
2023-05-10T19:41:01.202Z,3.80
2023-05-10T19:42:01.260Z,3.10
2023-05-10T19:43:01.168Z,2.70
2023-05-10T19:44:01.132Z,2.50
2023-05-10T19:45:01.658Z,2.60
2023-05-10T19:46:01.194Z,2.30
2023-05-10T19:47:01.141Z,2.10
2023-05-10T19:48:01.097Z,2.20
2023-05-10T19:49:01.455Z,1.80
2023-05-10T19:50:01.063Z,1.80
2023-05-10T19:51:01.231Z,1.80
2023-05-10T19:52:01.029Z,1.50
2023-05-10T19:53:01.104Z,1.20
2023-05-10T19:54:01.013Z,1.00
2023-05-10T19:55:00.980Z,1.00
2023-05-10T19:56:00.990Z,0.80
2023-05-10T19:57:01.078Z,0.60
2023-05-10T19:58:00.991Z,0.90
2023-05-10T19:59:00.959Z,0.70
2023-05-10T20:00:01.263Z,0.60
2023-05-10T20:01:00.956Z,0.60
2023-05-10T20:02:00.906Z,0.60
2023-05-10T20:03:00.944Z,0.80
2023-05-10T20:04:00.918Z,0.60
2023-05-10T20:05:00.882Z,0.50
2023-05-10T20:06:00.867Z,0.40
2023-05-10T20:07:00.876Z,0.50
2023-05-10T20:08:00.863Z,0.50
2023-05-10T20:09:00.843Z,0.50
2023-05-10T20:16:16.859Z,0.50
2023-05-10T20:17:16.507Z,0.60
2023-05-10T20:18:16.499Z,0.60
2023-05-10T20:19:16.457Z,0.40
2023-05-10T20:20:16.765Z,0.50
2023-05-10T20:21:16.374Z,0.50
2023-05-10T20:22:16.367Z,0.60
2023-05-10T20:23:16.460Z,0.60
2023-05-10T20:24:16.405Z,0.40
2023-05-10T20:25:16.376Z,0.80
2023-05-10T20:26:16.310Z,0.60
2023-05-10T20:27:16.608Z,0.60
2023-05-10T20:28:16.339Z,0.50
2023-05-10T20:29:16.341Z,0.50
2023-05-10T20:30:16.526Z,0.50
2023-05-10T20:31:17.439Z,0.50
2023-05-10T20:32:16.337Z,0.60
2023-05-10T20:33:16.290Z,0.70
2023-05-10T20:34:16.264Z,0.50
